createdAt,value
2023-03-06T00:00:19.770Z,97703.81
2023-03-06T00:02:46.944Z,97699.16
2023-03-06T00:05:15.243Z,97716.47
2023-03-06T00:07:42.807Z,97707.56
2023-03-06T00:10:18.096Z,97700.03
2023-03-06T00:12:45.229Z,97711.16
2023-03-06T00:15:13.282Z,97718.81
2023-03-06T00:17:41.334Z,97722.00
2023-03-06T00:20:10.646Z,97725.63
2023-03-06T00:22:37.988Z,97709.84
2023-03-06T00:25:06.181Z,97725.44
2023-03-06T00:27:33.614Z,97731.34
2023-03-06T00:30:01.318Z,97728.97
2023-03-06T00:32:28.834Z,97729.13
2023-03-06T00:34:56.829Z,97718.56
2023-03-06T00:37:25.349Z,97711.78
2023-03-06T00:39:52.553Z,97719.50
2023-03-06T00:42:20.130Z,97721.59
2023-03-06T00:44:47.469Z,97718.09
2023-03-06T00:47:17.437Z,97717.91
2023-03-06T00:49:45.542Z,97710.47
2023-03-06T00:52:13.793Z,97702.03
2023-03-06T00:54:41.409Z,97703.81
2023-03-06T00:57:08.763Z,97706.91
2023-03-06T00:59:36.029Z,97721.16
2023-03-06T01:02:03.550Z,97719.38
2023-03-06T01:04:32.007Z,97713.44
2023-03-06T01:06:59.283Z,97720.09
2023-03-06T01:09:26.353Z,97715.53
2023-03-06T01:11:54.311Z,97716.38
2023-03-06T01:14:21.689Z,97710.50
2023-03-06T01:16:48.890Z,97716.34
2023-03-06T01:19:18.021Z,97703.19
2023-03-06T01:21:46.065Z,97706.69
2023-03-06T01:24:13.072Z,97710.75
2023-03-06T01:26:40.093Z,97716.22
2023-03-06T01:29:07.112Z,97719.66
2023-03-06T01:31:34.576Z,97718.94
2023-03-06T01:34:01.807Z,97726.44
2023-03-06T01:36:28.810Z,97721.06
2023-03-06T01:38:55.796Z,97722.00
2023-03-06T01:41:23.005Z,97713.19
2023-03-06T01:43:50.206Z,97721.16
2023-03-06T01:46:29.388Z,97724.69
2023-03-06T01:48:58.161Z,97719.81
2023-03-06T01:51:30.380Z,97725.31
2023-03-06T01:54:00.932Z,97731.34
2023-03-06T01:56:28.938Z,97721.59
2023-03-06T01:58:57.308Z,97723.63
2023-03-06T02:01:24.524Z,97726.28
2023-03-06T02:03:53.139Z,97731.34
2023-03-06T02:06:22.040Z,97732.72
2023-03-06T02:08:51.862Z,97717.56
2023-03-06T02:11:22.126Z,97717.63
2023-03-06T02:13:51.809Z,97721.22
2023-03-06T02:16:23.994Z,97716.78
2023-03-06T02:18:51.955Z,97719.38
2023-03-06T02:21:25.691Z,97725.16
2023-03-06T02:24:13.659Z,97716.72
2023-03-06T02:26:43.551Z,97726.88
2023-03-06T02:29:11.213Z,97722.28
2023-03-06T02:31:38.428Z,97729.31
2023-03-06T02:34:14.850Z,97729.13
2023-03-06T02:37:09.734Z,97732.50
2023-03-06T02:39:42.409Z,97733.09
2023-03-06T02:42:09.760Z,97729.03
2023-03-06T02:44:37.019Z,97727.78
2023-03-06T02:47:05.124Z,97749.69
2023-03-06T02:49:32.126Z,97739.25
2023-03-06T02:51:59.180Z,97750.69
2023-03-06T02:54:26.318Z,97748.28
2023-03-06T02:56:53.345Z,97749.09
2023-03-06T02:59:20.306Z,97742.88
2023-03-06T03:01:48.010Z,97746.88
2023-03-06T03:04:15.148Z,97744.25
2023-03-06T03:06:42.730Z,97749.16
2023-03-06T03:09:10.613Z,97740.75
2023-03-06T03:11:37.903Z,97744.59
2023-03-06T03:14:04.958Z,97745.00
2023-03-06T03:16:32.114Z,97737.03
2023-03-06T03:18:59.330Z,97742.25
2023-03-06T03:21:27.034Z,97733.19
2023-03-06T03:23:55.453Z,97747.56
2023-03-06T03:26:23.175Z,97746.00
2023-03-06T03:29:10.973Z,97748.22
2023-03-06T03:31:37.981Z,97757.41
2023-03-06T03:34:05.107Z,97749.97
2023-03-06T03:36:35.671Z,97751.84
2023-03-06T03:39:04.350Z,97742.31
2023-03-06T03:41:32.376Z,97741.06
2023-03-06T03:43:59.630Z,97733.56
2023-03-06T03:46:26.894Z,97731.88
2023-03-06T03:48:56.010Z,97744.66
2023-03-06T03:51:23.344Z,97743.41
2023-03-06T03:53:53.877Z,97752.88
2023-03-06T03:56:27.628Z,97748.34
2023-03-06T03:59:09.853Z,97749.03
2023-03-06T04:01:44.865Z,97748.88
2023-03-06T04:04:13.063Z,97757.66
2023-03-06T04:06:41.660Z,97760.34
2023-03-06T04:09:09.050Z,97764.34
2023-03-06T04:11:37.095Z,97773.31
2023-03-06T04:14:04.257Z,97768.31
2023-03-06T04:16:31.818Z,97760.16
2023-03-06T04:18:58.843Z,97773.63
2023-03-06T04:21:26.079Z,97779.25
2023-03-06T04:23:53.100Z,97768.66
2023-03-06T04:26:20.631Z,97786.50
2023-03-06T04:28:48.059Z,97778.56
2023-03-06T04:31:15.778Z,97793.81
2023-03-06T04:33:43.373Z,97782.38
2023-03-06T04:36:25.186Z,97783.06
2023-03-06T04:38:53.313Z,97797.31
2023-03-06T04:41:20.514Z,97788.38
2023-03-06T04:43:47.657Z,97796.16
2023-03-06T04:46:14.801Z,97803.88
2023-03-06T04:48:41.897Z,97798.81
2023-03-06T04:51:08.997Z,97801.28
2023-03-06T04:53:36.135Z,97813.53
2023-03-06T04:56:03.138Z,97805.13
2023-03-06T04:58:30.206Z,97811.88
2023-03-06T05:00:57.286Z,97802.44
2023-03-06T05:03:24.242Z,97805.59
2023-03-06T05:05:51.258Z,97804.94
2023-03-06T05:08:18.484Z,97804.28
2023-03-06T05:10:45.832Z,97800.78
2023-03-06T05:13:13.331Z,97792.97
2023-03-06T05:15:41.135Z,97789.53
2023-03-06T05:18:08.299Z,97804.34
2023-03-06T05:20:35.285Z,97790.63
2023-03-06T05:23:02.282Z,97796.16
2023-03-06T05:25:29.294Z,97793.66
2023-03-06T05:27:56.344Z,97800.28
2023-03-06T05:30:23.533Z,97802.56
2023-03-06T05:32:51.038Z,97806.94
2023-03-06T05:35:21.247Z,97815.25
2023-03-06T05:37:48.868Z,97816.03
2023-03-06T05:40:16.887Z,97813.44
2023-03-06T05:42:44.112Z,97808.84
2023-03-06T05:45:11.966Z,97817.63
2023-03-06T05:47:39.112Z,97807.41
2023-03-06T05:50:08.419Z,97811.47
2023-03-06T05:52:35.419Z,97816.94
2023-03-06T05:55:02.480Z,97816.44
2023-03-06T05:57:29.454Z,97815.84
2023-03-06T05:59:56.533Z,97812.09
2023-03-06T06:02:23.659Z,97825.56
2023-03-06T06:04:50.740Z,97830.97
2023-03-06T06:07:17.894Z,97824.66
2023-03-06T06:09:48.202Z,97833.34
2023-03-06T06:12:15.230Z,97818.06
2023-03-06T06:14:42.259Z,97833.41
2023-03-06T06:17:09.555Z,97840.78
2023-03-06T06:19:36.582Z,97846.31
2023-03-06T06:22:04.064Z,97851.38
2023-03-06T06:24:32.069Z,97848.25
2023-03-06T06:27:03.286Z,97853.16
2023-03-06T06:29:31.307Z,97846.13
2023-03-06T06:31:58.918Z,97861.19
2023-03-06T06:34:26.350Z,97861.78
2023-03-06T06:36:54.700Z,97866.84
2023-03-06T06:39:23.203Z,97866.59
2023-03-06T06:42:02.608Z,97859.81
2023-03-06T06:44:37.460Z,97854.13
2023-03-06T06:47:24.234Z,97866.03
2023-03-06T06:49:53.649Z,97869.22
2023-03-06T06:52:21.011Z,97862.97
2023-03-06T06:54:48.185Z,97872.69
2023-03-06T06:57:16.071Z,97866.06
2023-03-06T06:59:43.493Z,97867.38
2023-03-06T07:02:16.024Z,97869.13
2023-03-06T07:05:00.764Z,97876.50
2023-03-06T07:07:31.211Z,97869.19
2023-03-06T07:10:00.070Z,97864.28
2023-03-06T07:12:27.453Z,97863.31
2023-03-06T07:14:54.415Z,97865.69
2023-03-06T07:17:21.953Z,97865.66
2023-03-06T07:19:49.014Z,97869.97
2023-03-06T07:22:16.514Z,97870.00
2023-03-06T07:24:43.753Z,97873.03
2023-03-06T07:27:14.857Z,97867.88
2023-03-06T07:29:45.475Z,97860.59
2023-03-06T07:32:12.734Z,97873.13
2023-03-06T07:34:39.939Z,97864.84
2023-03-06T07:37:08.660Z,97866.56
2023-03-06T07:39:35.684Z,97865.25
2023-03-06T07:42:03.008Z,97871.53
2023-03-06T07:44:30.206Z,97864.16
2023-03-06T07:46:57.466Z,97872.09
2023-03-06T07:49:24.397Z,97859.56
2023-03-06T07:51:51.809Z,97858.06
2023-03-06T07:54:18.797Z,97852.66
2023-03-06T07:56:46.064Z,97853.22
2023-03-06T07:59:13.368Z,97857.28
2023-03-06T08:01:40.603Z,97849.47
2023-03-06T08:04:07.642Z,97854.25
2023-03-06T08:06:35.311Z,97841.84
2023-03-06T08:09:02.468Z,97853.06
2023-03-06T08:11:31.107Z,97841.09
2023-03-06T08:13:59.284Z,97851.22
2023-03-06T08:16:31.922Z,97851.66
2023-03-06T08:18:59.183Z,97852.72
2023-03-06T08:21:28.038Z,97854.28
2023-03-06T08:23:55.392Z,97850.28
2023-03-06T08:26:27.965Z,97855.53
2023-03-06T08:28:56.940Z,97857.69
2023-03-06T08:31:34.619Z,97858.31
2023-03-06T08:34:04.889Z,97855.00
2023-03-06T08:36:32.089Z,97859.84
2023-03-06T08:38:59.830Z,97848.31
2023-03-06T08:41:27.770Z,97852.50
2023-03-06T08:43:54.974Z,97852.59
2023-03-06T08:46:23.750Z,97859.44
2023-03-06T08:48:50.815Z,97857.41
2023-03-06T08:51:19.012Z,97851.25
2023-03-06T08:53:46.776Z,97851.88
2023-03-06T08:56:28.285Z,97865.72
2023-03-06T08:58:58.062Z,97866.72
2023-03-06T09:01:31.128Z,97869.19
2023-03-06T09:04:01.625Z,97860.00
2023-03-06T09:06:32.811Z,97858.97
2023-03-06T09:09:00.458Z,97850.66
2023-03-06T09:11:28.681Z,97854.44
2023-03-06T09:13:56.702Z,97850.53
2023-03-06T09:16:24.605Z,97860.94
2023-03-06T09:18:54.642Z,97846.81
2023-03-06T09:21:23.207Z,97853.13
2023-03-06T09:23:51.295Z,97853.97
2023-03-06T09:26:19.138Z,97846.97
2023-03-06T09:28:46.973Z,97847.91
2023-03-06T09:31:20.144Z,97858.19
2023-03-06T09:33:48.438Z,97851.03
2023-03-06T09:36:19.101Z,97849.78
2023-03-06T09:38:48.070Z,97852.03
2023-03-06T09:41:27.075Z,97849.91
2023-03-06T09:44:04.907Z,97856.28
2023-03-06T09:46:42.545Z,97848.22
2023-03-06T09:49:23.317Z,97837.91
2023-03-06T09:51:59.454Z,97840.03
2023-03-06T09:54:52.462Z,97830.53
2023-03-06T09:57:29.264Z,97846.16
2023-03-06T09:59:59.953Z,97850.97
2023-03-06T10:02:37.903Z,97842.16
2023-03-06T10:05:12.608Z,97848.69
2023-03-06T10:08:26.283Z,97843.72
2023-03-06T10:11:02.606Z,97832.94
2023-03-06T10:13:38.726Z,97833.78
2023-03-06T10:16:41.917Z,97831.94
2023-03-06T10:19:18.206Z,97829.50
2023-03-06T10:22:01.311Z,97832.63
2023-03-06T10:24:40.469Z,97831.97
2023-03-06T10:27:19.046Z,97828.81
2023-03-06T10:30:01.519Z,97827.53
2023-03-06T10:32:49.463Z,97824.88
2023-03-06T10:35:22.510Z,97817.22
2023-03-06T10:37:49.849Z,97812.56
2023-03-06T10:40:21.214Z,97814.38
2023-03-06T10:42:50.674Z,97811.53
2023-03-06T10:45:20.977Z,97808.84
2023-03-06T10:47:48.153Z,97808.06
2023-03-06T10:50:28.047Z,97802.78
2023-03-06T10:53:16.708Z,97798.63
2023-03-06T10:55:52.842Z,97807.22
2023-03-06T10:58:30.169Z,97796.19
2023-03-06T11:01:07.158Z,97799.66
2023-03-06T11:03:36.837Z,97786.22
2023-03-06T11:06:12.999Z,97783.72
2023-03-06T11:08:42.958Z,97772.94
2023-03-06T11:11:36.908Z,97773.00
2023-03-06T11:14:16.545Z,97758.50
2023-03-06T11:16:54.685Z,97752.97
2023-03-06T11:19:29.020Z,97749.59
2023-03-06T11:22:06.034Z,97746.00
2023-03-06T11:24:43.273Z,97737.91
2023-03-06T11:27:38.425Z,97736.59
2023-03-06T11:30:18.429Z,97740.19
2023-03-06T11:32:54.222Z,97728.66
2023-03-06T11:35:26.864Z,97722.78
2023-03-06T11:37:58.688Z,97720.88
2023-03-06T11:40:32.270Z,97717.19
2023-03-06T11:43:41.260Z,97711.72
2023-03-06T11:46:22.599Z,97707.81
2023-03-06T11:49:13.471Z,97702.47
2023-03-06T11:51:51.968Z,97696.84
2023-03-06T11:54:19.071Z,97688.94
2023-03-06T11:56:48.641Z,97685.78
2023-03-06T11:59:23.511Z,97684.72
2023-03-06T12:02:32.935Z,97680.75
2023-03-06T12:05:09.130Z,97682.09
2023-03-06T12:07:48.037Z,97674.38
2023-03-06T12:10:35.941Z,97663.03
2023-03-06T12:13:28.022Z,97656.16
2023-03-06T12:16:01.369Z,97649.22
2023-03-06T12:19:02.571Z,97648.91
2023-03-06T12:22:11.032Z,97646.63
2023-03-06T12:24:53.534Z,97644.84
2023-03-06T12:27:27.501Z,97632.50
2023-03-06T12:30:15.757Z,97627.25
2023-03-06T12:33:07.748Z,97626.09
2023-03-06T12:36:11.675Z,97612.88
2023-03-06T12:38:52.748Z,97608.84
2023-03-06T12:41:41.430Z,97602.44
2023-03-06T12:44:39.767Z,97609.00
2023-03-06T12:47:14.003Z,97603.84
2023-03-06T12:49:46.412Z,97598.31
2023-03-06T12:52:30.170Z,97592.34
2023-03-06T12:55:06.470Z,97593.16
2023-03-06T12:57:33.933Z,97587.69
2023-03-06T13:00:01.026Z,97589.56
2023-03-06T13:02:31.672Z,97592.53
2023-03-06T13:05:24.250Z,97587.47
2023-03-06T13:08:13.770Z,97587.09
2023-03-06T13:10:43.809Z,97582.00
2023-03-06T13:13:43.337Z,97578.97
2023-03-06T13:16:14.221Z,97582.34
2023-03-06T13:18:41.233Z,97574.94
2023-03-06T13:21:42.622Z,97564.41
2023-03-06T13:24:37.399Z,97571.88
2023-03-06T13:27:09.646Z,97571.22
2023-03-06T13:29:36.603Z,97565.94
2023-03-06T13:32:03.637Z,97573.19
2023-03-06T13:34:40.139Z,97565.44
2023-03-06T13:37:30.218Z,97555.38
2023-03-06T13:39:58.572Z,97554.47
2023-03-06T13:42:31.024Z,97551.44
2023-03-06T13:45:06.785Z,97558.16
2023-03-06T13:48:25.029Z,97548.41
2023-03-06T13:50:48.794Z,97546.41
2023-03-06T13:53:49.119Z,97540.53
2023-03-06T13:56:47.335Z,97543.88
2023-03-06T13:59:56.969Z,97543.28
2023-03-06T14:03:09.305Z,97531.97
2023-03-06T14:05:47.224Z,97528.22
2023-03-06T14:08:17.667Z,97531.91
2023-03-06T14:10:49.621Z,97523.97
2023-03-06T14:13:32.318Z,97521.13
2023-03-06T14:16:17.572Z,97513.25
2023-03-06T14:18:51.066Z,97507.84
2023-03-06T14:21:31.208Z,97497.66
2023-03-06T14:24:03.768Z,97487.66
2023-03-06T14:26:41.836Z,97493.66
2023-03-06T14:29:23.309Z,97494.84
2023-03-06T14:31:53.612Z,97508.34
2023-03-06T14:34:24.229Z,97507.78
2023-03-06T14:36:56.461Z,97509.25
2023-03-06T14:39:32.411Z,97504.00
2023-03-06T14:42:24.930Z,97505.53
2023-03-06T14:45:18.884Z,97507.53
2023-03-06T14:47:53.441Z,97505.19
2023-03-06T14:50:28.064Z,97501.09
2023-03-06T14:53:03.257Z,97510.19
2023-03-06T14:55:35.203Z,97499.94
2023-03-06T14:58:12.303Z,97496.06
2023-03-06T15:00:46.641Z,97507.00
2023-03-06T15:03:42.980Z,97492.81
2023-03-06T15:06:33.447Z,97500.84
2023-03-06T15:09:00.532Z,97506.31
2023-03-06T15:11:41.634Z,97502.41
2023-03-06T15:14:18.912Z,97506.75
2023-03-06T15:16:46.023Z,97513.22
2023-03-06T15:19:39.887Z,97514.28
2023-03-06T15:22:20.906Z,97513.44
2023-03-06T15:24:47.990Z,97511.09
2023-03-06T15:27:20.229Z,97506.25
2023-03-06T15:29:47.249Z,97521.38
2023-03-06T15:32:36.006Z,97510.69
2023-03-06T15:35:24.540Z,97514.06
2023-03-06T15:37:52.261Z,97510.84
2023-03-06T15:40:24.697Z,97520.31
2023-03-06T15:42:52.248Z,97517.69
2023-03-06T15:45:22.078Z,97506.19
2023-03-06T15:47:50.816Z,97513.97
2023-03-06T15:50:23.307Z,97533.00
2023-03-06T15:52:51.013Z,97516.47
2023-03-06T15:55:21.019Z,97514.22
2023-03-06T15:57:52.622Z,97521.47
2023-03-06T16:00:32.685Z,97525.66
2023-03-06T16:03:00.286Z,97518.78
2023-03-06T16:05:28.951Z,97520.69
2023-03-06T16:07:56.779Z,97511.28
2023-03-06T16:10:26.855Z,97511.22
2023-03-06T16:13:02.633Z,97504.91
2023-03-06T16:15:33.346Z,97505.91
2023-03-06T16:18:00.444Z,97495.00
2023-03-06T16:20:29.399Z,97499.03
2023-03-06T16:22:56.935Z,97501.31
2023-03-06T16:25:26.858Z,97505.72
2023-03-06T16:27:59.820Z,97509.47
2023-03-06T16:30:32.401Z,97509.19
2023-03-06T16:33:00.189Z,97501.25
2023-03-06T16:35:27.586Z,97496.16
2023-03-06T16:37:54.780Z,97496.63
2023-03-06T16:40:29.240Z,97493.69
2023-03-06T16:42:56.946Z,97498.25
2023-03-06T16:45:24.747Z,97494.06
2023-03-06T16:47:52.467Z,97494.94
2023-03-06T16:50:36.543Z,97496.38
2023-03-06T16:53:04.353Z,97491.69
2023-03-06T16:55:33.882Z,97482.78
2023-03-06T16:58:00.939Z,97478.28
2023-03-06T17:00:33.371Z,97483.22
2023-03-06T17:03:01.850Z,97487.91
2023-03-06T17:05:33.338Z,97484.53
2023-03-06T17:08:00.508Z,97486.44
2023-03-06T17:10:27.608Z,97488.28
2023-03-06T17:12:55.987Z,97501.84
2023-03-06T17:15:23.192Z,97500.75
2023-03-06T17:17:51.834Z,97500.72
2023-03-06T17:20:19.684Z,97492.38
2023-03-06T17:22:46.745Z,97499.34
2023-03-06T17:25:13.890Z,97502.28
2023-03-06T17:27:41.044Z,97498.63
2023-03-06T17:30:08.619Z,97503.59
2023-03-06T17:32:37.809Z,97497.63
2023-03-06T17:35:05.407Z,97508.94
2023-03-06T17:37:32.542Z,97507.81
2023-03-06T17:39:59.709Z,97514.75
2023-03-06T17:42:26.820Z,97508.25
2023-03-06T17:44:53.921Z,97524.22
2023-03-06T17:47:20.914Z,97512.34
2023-03-06T17:49:47.895Z,97510.06
2023-03-06T17:52:14.997Z,97515.31
2023-03-06T17:54:42.096Z,97512.94
2023-03-06T17:57:09.167Z,97508.41
2023-03-06T17:59:36.302Z,97499.03
2023-03-06T18:02:03.996Z,97512.50
2023-03-06T18:04:31.256Z,97520.00
2023-03-06T18:06:58.576Z,97517.16
2023-03-06T18:09:25.675Z,97515.16
2023-03-06T18:11:53.031Z,97521.09
2023-03-06T18:14:20.146Z,97522.25
2023-03-06T18:16:47.422Z,97525.06
2023-03-06T18:19:14.895Z,97520.41
2023-03-06T18:21:42.108Z,97514.03
2023-03-06T18:24:11.569Z,97517.72
2023-03-06T18:26:42.564Z,97523.09
2023-03-06T18:29:09.744Z,97516.16
2023-03-06T18:31:39.414Z,97516.16
2023-03-06T18:34:18.010Z,97518.28
2023-03-06T18:36:47.698Z,97529.31
2023-03-06T18:39:16.014Z,97534.56
2023-03-06T18:41:43.251Z,97525.38
2023-03-06T18:44:14.795Z,97532.16
2023-03-06T18:46:42.294Z,97529.75
2023-03-06T18:49:10.565Z,97521.69
2023-03-06T18:51:37.685Z,97527.34
2023-03-06T18:54:06.629Z,97529.41
2023-03-06T18:56:34.308Z,97528.13
2023-03-06T18:59:06.763Z,97534.91
2023-03-06T19:01:34.470Z,97539.41
2023-03-06T19:04:03.519Z,97527.97
2023-03-06T19:06:33.711Z,97526.16
2023-03-06T19:09:02.444Z,97536.91
2023-03-06T19:11:30.039Z,97544.81
2023-03-06T19:13:57.224Z,97545.22
2023-03-06T19:16:27.856Z,97537.16
2023-03-06T19:18:56.219Z,97542.97
2023-03-06T19:21:26.377Z,97538.56
2023-03-06T19:23:53.996Z,97545.09
2023-03-06T19:26:21.202Z,97542.78
2023-03-06T19:28:48.634Z,97541.38
2023-03-06T19:31:20.328Z,97537.81
2023-03-06T19:33:49.382Z,97550.34
2023-03-06T19:36:17.475Z,97542.38
2023-03-06T19:38:44.543Z,97538.78
2023-03-06T19:41:13.828Z,97545.31
2023-03-06T19:43:44.038Z,97535.72
2023-03-06T19:46:13.160Z,97541.47
2023-03-06T19:48:41.382Z,97536.38
2023-03-06T19:51:09.109Z,97528.88
2023-03-06T19:53:36.929Z,97533.41
2023-03-06T19:56:05.074Z,97532.59
2023-03-06T19:58:32.147Z,97524.78
2023-03-06T20:01:25.354Z,97527.34
2023-03-06T20:03:59.860Z,97542.00
2023-03-06T20:06:37.764Z,97545.63
2023-03-06T20:09:08.326Z,97539.34
2023-03-06T20:11:39.101Z,97535.22
2023-03-06T20:14:08.123Z,97537.34
2023-03-06T20:16:36.070Z,97532.88
2023-03-06T20:19:03.834Z,97538.25
2023-03-06T20:21:35.591Z,97534.41
2023-03-06T20:24:08.098Z,97545.59
2023-03-06T20:26:36.936Z,97542.97
2023-03-06T20:29:04.300Z,97546.38
2023-03-06T20:31:31.564Z,97540.28
2023-03-06T20:33:59.901Z,97547.72
2023-03-06T20:36:29.960Z,97535.28
2023-03-06T20:39:00.320Z,97527.66
2023-03-06T20:41:29.313Z,97523.91
2023-03-06T20:43:58.534Z,97531.84
2023-03-06T20:46:29.159Z,97536.44
2023-03-06T20:48:58.251Z,97521.72
2023-03-06T20:51:28.921Z,97529.03
2023-03-06T20:53:56.618Z,97524.53
2023-03-06T20:56:26.803Z,97510.94
2023-03-06T20:58:54.364Z,97507.97
2023-03-06T21:01:29.488Z,97509.56
2023-03-06T21:03:57.974Z,97515.28
2023-03-06T21:06:26.827Z,97515.16
2023-03-06T21:08:54.810Z,97520.63
2023-03-06T21:11:22.321Z,97512.63
2023-03-06T21:13:49.721Z,97510.97
2023-03-06T21:16:19.542Z,97516.78
2023-03-06T21:18:47.912Z,97510.88
2023-03-06T21:21:18.660Z,97510.03
2023-03-06T21:23:47.372Z,97503.91
2023-03-06T21:26:17.469Z,97530.81
2023-03-06T21:28:44.731Z,97515.97
2023-03-06T21:31:13.575Z,97494.94
2023-03-06T21:33:41.067Z,97502.19
2023-03-06T21:36:09.202Z,97493.31
2023-03-06T21:38:36.656Z,97499.28
2023-03-06T21:41:15.934Z,97488.19
2023-03-06T21:43:43.719Z,97486.00
2023-03-06T21:46:11.737Z,97493.69
2023-03-06T21:48:42.428Z,97483.72
2023-03-06T21:51:13.367Z,97478.09
2023-03-06T21:53:47.767Z,97464.84
2023-03-06T21:56:17.965Z,97479.81
2023-03-06T21:58:46.092Z,97480.06
2023-03-06T22:01:22.894Z,97473.03
2023-03-06T22:03:50.785Z,97480.91
2023-03-06T22:06:27.997Z,97473.03
2023-03-06T22:08:56.690Z,97464.06
2023-03-06T22:11:25.335Z,97470.16
2023-03-06T22:13:55.876Z,97474.69
2023-03-06T22:16:23.431Z,97475.06
2023-03-06T22:18:52.028Z,97476.91
2023-03-06T22:21:21.949Z,97472.63
2023-03-06T22:23:54.189Z,97461.56
2023-03-06T22:26:21.849Z,97471.47
2023-03-06T22:28:49.345Z,97467.19
2023-03-06T22:31:24.428Z,97470.91
2023-03-06T22:33:53.295Z,97473.63
2023-03-06T22:36:21.623Z,97479.56
2023-03-06T22:38:49.765Z,97477.88
2023-03-06T22:41:17.696Z,97482.25
2023-03-06T22:43:45.043Z,97491.72
2023-03-06T22:46:15.138Z,97478.94
2023-03-06T22:48:42.756Z,97472.28
2023-03-06T22:51:12.713Z,97478.59
2023-03-06T22:53:40.665Z,97479.69
2023-03-06T22:56:11.021Z,97466.84
2023-03-06T22:58:38.865Z,97473.38
2023-03-06T23:01:12.622Z,97502.34
2023-03-06T23:03:42.889Z,97487.78
2023-03-06T23:06:12.827Z,97493.16
2023-03-06T23:08:40.865Z,97493.41
2023-03-06T23:11:13.832Z,97500.34
2023-03-06T23:13:59.749Z,97495.00
2023-03-06T23:16:46.210Z,97495.56
2023-03-06T23:19:31.997Z,97500.72
2023-03-06T23:22:18.803Z,97498.44
2023-03-06T23:25:04.684Z,97499.53
2023-03-06T23:27:32.410Z,97502.41
2023-03-06T23:29:59.938Z,97490.59
2023-03-06T23:32:27.002Z,97486.78
2023-03-06T23:34:54.741Z,97493.03
2023-03-06T23:37:21.698Z,97498.28
2023-03-06T23:39:49.055Z,97488.75
2023-03-06T23:42:16.378Z,97485.78
2023-03-06T23:44:43.910Z,97504.03
2023-03-06T23:47:10.891Z,97494.72
2023-03-06T23:49:40.178Z,97493.00
2023-03-06T23:52:07.228Z,97499.88
2023-03-06T23:54:34.603Z,97516.25
2023-03-06T23:57:01.675Z,97510.06
2023-03-06T23:59:28.799Z,97502.91
